createdAt,value
2023-04-28T00:01:51.303Z,23.52
2023-04-28T00:06:56.700Z,28.88
2023-04-28T00:12:01.802Z,29.02
2023-04-28T00:17:06.205Z,27.30
2023-04-28T00:22:11.588Z,40.10
2023-04-28T00:27:15.596Z,36.95
2023-04-28T00:32:19.603Z,37.67
2023-04-28T00:37:24.936Z,31.35
2023-04-28T00:42:29.281Z,25.70
2023-04-28T00:47:33.920Z,22.58
2023-04-28T00:52:39.942Z,22.75
2023-04-28T00:57:44.379Z,20.83
2023-04-28T01:02:48.414Z,21.15
2023-04-28T01:07:54.324Z,19.77
2023-04-28T01:12:58.529Z,19.90
2023-04-28T01:18:02.567Z,20.45
2023-04-28T01:23:13.311Z,20.75
2023-04-28T01:28:19.024Z,18.00
2023-04-28T01:33:23.027Z,18.33
2023-04-28T01:38:27.127Z,19.58
2023-04-28T01:43:32.522Z,18.38
2023-04-28T01:48:36.700Z,17.27
2023-04-28T01:53:40.612Z,16.05
2023-04-28T01:58:46.379Z,16.85
2023-04-28T02:03:50.817Z,16.75
2023-04-28T02:08:55.047Z,15.88
2023-04-28T02:14:00.345Z,17.27
2023-04-28T02:19:04.352Z,16.88
2023-04-28T02:24:09.360Z,16.92
2023-04-28T02:29:14.586Z,15.55
2023-04-28T02:34:18.646Z,16.17
2023-04-28T02:39:25.399Z,17.65
2023-04-28T02:44:30.929Z,16.92
2023-04-28T02:49:34.835Z,18.33
2023-04-28T02:54:38.717Z,16.52
2023-04-28T02:59:44.536Z,17.08
2023-04-28T03:04:48.757Z,16.80
2023-04-28T03:09:52.930Z,17.30
2023-04-28T03:14:58.343Z,18.65
2023-04-28T03:20:02.342Z,19.20
2023-04-28T03:25:07.627Z,18.17
2023-04-28T03:30:20.322Z,16.77
2023-04-28T03:35:24.335Z,18.75
2023-04-28T03:40:28.691Z,15.43
2023-04-28T03:45:57.148Z,15.98
2023-04-28T03:51:01.527Z,14.15
2023-04-28T03:56:05.891Z,14.75
2023-04-28T04:01:11.540Z,13.35
2023-04-28T04:06:15.709Z,12.50
2023-04-28T04:11:19.774Z,12.40
2023-04-28T04:16:25.441Z,14.05
2023-04-28T04:21:33.039Z,13.57
2023-04-28T04:26:37.175Z,13.55
2023-04-28T04:31:54.491Z,12.32
2023-04-28T04:36:59.883Z,13.73
2023-04-28T04:42:16.802Z,18.90
2023-04-28T04:47:39.649Z,20.13
2023-04-28T04:57:48.204Z,15.98
2023-04-28T05:03:16.961Z,17.15
2023-04-28T05:13:25.219Z,13.80
2023-04-28T05:18:36.822Z,15.38
2023-04-28T05:23:41.063Z,12.48
2023-04-28T05:28:45.115Z,12.18
2023-04-28T05:33:50.494Z,12.07
2023-04-28T05:38:54.644Z,12.95
2023-04-28T05:43:59.203Z,11.88
2023-04-28T05:49:04.728Z,12.95
2023-04-28T05:54:12.747Z,10.82
2023-04-28T05:59:22.224Z,23.35
2023-04-28T06:04:27.955Z,11.30
2023-04-28T06:09:32.692Z,10.95
2023-04-28T06:14:37.937Z,10.35
2023-04-28T06:19:43.457Z,11.13
2023-04-28T06:24:47.933Z,11.55
2023-04-28T06:29:55.954Z,11.00
2023-04-28T06:35:01.195Z,11.27
2023-04-28T06:40:05.739Z,12.35
2023-04-28T06:45:11.060Z,11.40
2023-04-28T06:50:16.529Z,10.90
2023-04-28T06:55:20.709Z,11.23
2023-04-28T07:00:24.975Z,9.98
2023-04-28T07:05:30.311Z,8.98
2023-04-28T07:10:34.247Z,9.57
2023-04-28T07:15:38.181Z,9.68
2023-04-28T07:20:43.558Z,8.52
2023-04-28T07:25:47.558Z,7.30
2023-04-28T07:30:51.457Z,5.78
2023-04-28T07:35:56.878Z,5.00
2023-04-28T07:41:00.874Z,6.07
2023-04-28T07:46:05.070Z,5.75
2023-04-28T07:51:11.081Z,4.95
2023-04-28T07:56:15.104Z,5.13
2023-04-28T08:01:19.586Z,4.45
2023-04-28T08:06:25.149Z,6.32
2023-04-28T08:11:29.033Z,3.88
2023-04-28T08:16:36.622Z,4.72
2023-04-28T08:21:42.011Z,4.18
2023-04-28T08:26:46.256Z,4.00
2023-04-28T08:31:50.109Z,3.83
2023-04-28T08:36:55.442Z,4.25
2023-04-28T08:41:59.418Z,4.13
2023-04-28T08:47:06.175Z,3.67
2023-04-28T08:52:13.784Z,4.00
2023-04-28T08:57:18.533Z,5.32
2023-04-28T09:07:28.055Z,4.75
2023-04-28T09:12:38.575Z,4.88
2023-04-28T09:17:50.082Z,4.40
2023-04-28T09:22:56.854Z,4.57
2023-04-28T09:28:00.959Z,4.57
2023-04-28T09:33:07.369Z,3.90
2023-04-28T09:38:14.293Z,4.30
2023-04-28T09:48:30.823Z,4.70
2023-04-28T09:53:36.708Z,3.88
2023-04-28T09:58:43.760Z,4.30
2023-04-28T10:03:49.173Z,4.55
2023-04-28T10:08:54.571Z,4.30
2023-04-28T10:13:58.548Z,4.13
2023-04-28T10:19:04.381Z,4.30
2023-04-28T10:24:17.119Z,4.50
2023-04-28T10:29:25.830Z,4.55
2023-04-28T10:34:31.462Z,4.40
2023-04-28T10:39:36.871Z,3.88
2023-04-28T10:44:44.838Z,4.55
2023-04-28T10:50:11.743Z,4.50
2023-04-28T10:55:36.563Z,4.10
2023-04-28T11:00:42.184Z,3.95
2023-04-28T11:06:19.362Z,3.63
2023-04-28T11:11:28.510Z,4.10
2023-04-28T11:16:33.412Z,4.57
2023-04-28T11:21:37.341Z,4.10
2023-04-28T11:26:43.867Z,4.25
2023-04-28T11:31:51.445Z,4.40
2023-04-28T11:36:56.066Z,3.83
2023-04-28T11:42:04.270Z,3.97
2023-04-28T11:47:08.782Z,4.30
2023-04-28T11:52:13.792Z,3.80
2023-04-28T11:57:23.327Z,3.50
2023-04-28T12:02:29.924Z,4.03
2023-04-28T12:07:43.844Z,3.80
2023-04-28T12:12:53.007Z,3.80
2023-04-28T12:18:10.603Z,4.07
2023-04-28T12:23:14.927Z,4.28
2023-04-28T12:28:20.280Z,3.53
2023-04-28T12:33:26.104Z,3.67
2023-04-28T12:38:30.208Z,3.75
2023-04-28T12:43:35.571Z,3.50
2023-04-28T12:48:39.726Z,4.15
2023-04-28T12:53:43.679Z,3.58
2023-04-28T12:58:48.905Z,3.90
2023-04-28T13:03:53.678Z,3.70
2023-04-28T13:14:04.128Z,4.15
2023-04-28T13:19:10.754Z,3.70
2023-04-28T13:24:14.968Z,4.38
2023-04-28T13:29:20.615Z,3.58
2023-04-28T13:34:24.545Z,4.60
2023-04-28T13:39:28.676Z,4.20
2023-04-28T13:44:34.030Z,4.18
2023-04-28T13:54:44.104Z,3.97
2023-04-28T13:59:50.244Z,4.70
2023-04-28T14:04:56.933Z,3.55
2023-04-28T14:10:01.173Z,4.05
2023-04-28T14:15:07.717Z,3.65
2023-04-28T14:20:12.255Z,3.60
2023-04-28T14:25:16.399Z,3.47
2023-04-28T14:30:23.045Z,3.22
2023-04-28T14:35:27.388Z,3.28
2023-04-28T14:40:31.547Z,3.50
2023-04-28T14:45:37.944Z,3.58
2023-04-28T14:50:44.655Z,3.00
2023-04-28T14:55:48.921Z,4.45
2023-04-28T15:00:54.364Z,2.80
2023-04-28T15:05:58.434Z,3.58
2023-04-28T15:11:02.827Z,3.37
2023-04-28T15:16:08.723Z,6.15
2023-04-28T15:21:13.086Z,5.57
2023-04-28T15:26:17.254Z,5.03
2023-04-28T15:31:23.918Z,5.50
2023-04-28T15:36:28.726Z,4.68
2023-04-28T15:41:32.730Z,9.97
2023-04-28T15:46:40.551Z,4.93
2023-04-28T15:51:45.227Z,4.47
2023-04-28T15:56:49.288Z,9.85
2023-04-28T16:01:55.567Z,4.95
2023-04-28T16:07:02.547Z,4.80
2023-04-28T16:12:06.762Z,4.53
2023-04-28T16:17:12.211Z,5.25
2023-04-28T16:22:16.193Z,11.73
2023-04-28T16:27:20.638Z,5.03
2023-04-28T16:32:26.419Z,4.80
2023-04-28T16:37:30.923Z,5.13
2023-04-28T16:42:34.893Z,8.02
2023-04-28T16:47:42.577Z,5.28
2023-04-28T16:52:46.832Z,5.60
2023-04-28T16:57:50.997Z,4.20
2023-04-28T17:02:56.965Z,5.07
2023-04-28T17:13:09.986Z,5.53
2023-04-28T17:18:15.798Z,5.45
2023-04-28T17:23:20.001Z,4.95
2023-04-28T17:28:25.342Z,5.25
2023-04-28T17:33:30.935Z,5.38
2023-04-28T17:38:36.408Z,5.47
2023-04-28T17:43:40.835Z,6.00
2023-04-28T17:48:46.352Z,5.15
2023-04-28T17:53:50.465Z,6.30
2023-04-28T17:58:55.281Z,5.95
2023-04-28T18:04:00.634Z,4.85
2023-04-28T18:09:05.154Z,5.40
2023-04-28T18:14:09.290Z,7.57
2023-04-28T18:19:15.063Z,13.43
2023-04-28T18:24:22.006Z,7.82
2023-04-28T18:29:26.543Z,6.25
2023-04-28T18:34:31.922Z,8.00
2023-04-28T18:39:36.350Z,7.32
2023-04-28T18:44:40.927Z,6.63
2023-04-28T18:49:47.036Z,6.65
2023-04-28T18:54:51.233Z,7.20
2023-04-28T18:59:55.225Z,6.53
2023-04-28T19:05:05.712Z,12.48
2023-04-28T19:10:10.796Z,7.50
2023-04-28T19:15:15.018Z,6.57
2023-04-28T19:20:22.108Z,7.28
2023-04-28T19:25:26.081Z,7.10
2023-04-28T19:30:30.273Z,12.63
2023-04-28T19:35:35.830Z,9.07
2023-04-28T19:40:40.688Z,13.50
2023-04-28T19:45:45.097Z,9.93
2023-04-28T19:50:50.609Z,17.33
2023-04-28T19:55:54.827Z,67.07
2023-04-28T20:00:58.785Z,29.73
2023-04-28T20:06:04.162Z,15.77
2023-04-28T20:11:08.435Z,9.73
2023-04-28T20:16:12.590Z,20.45
2023-04-28T20:21:18.106Z,11.00
2023-04-28T20:26:22.500Z,16.25
2023-04-28T20:31:26.630Z,12.65
2023-04-28T20:36:35.307Z,10.52
2023-04-28T20:41:41.111Z,17.98
2023-04-28T20:46:46.408Z,16.45
2023-04-28T20:51:52.049Z,15.27
2023-04-28T20:56:56.190Z,57.40
2023-04-28T21:02:00.586Z,13.57
2023-04-28T21:07:06.211Z,14.73
2023-04-28T21:12:11.023Z,19.83
2023-04-28T21:17:15.085Z,10.18
2023-04-28T21:22:21.009Z,11.80
2023-04-28T21:32:29.023Z,11.00
2023-04-28T21:37:34.533Z,12.18
2023-04-28T21:42:38.617Z,8.30
2023-04-28T21:47:43.684Z,8.05
2023-04-28T21:52:49.110Z,8.00
2023-04-28T21:57:54.112Z,8.18
2023-04-28T22:02:59.199Z,6.75
2023-04-28T22:08:05.849Z,7.97
2023-04-28T22:13:09.915Z,8.05
2023-04-28T22:18:14.331Z,7.57
2023-04-28T22:23:20.022Z,8.02
2023-04-28T22:28:24.559Z,8.73
2023-04-28T22:33:28.823Z,8.55
2023-04-28T22:38:34.461Z,9.38
2023-04-28T22:43:40.958Z,9.63
2023-04-28T22:48:45.308Z,8.52
2023-04-28T22:53:50.893Z,8.10
2023-04-28T22:58:54.994Z,8.48
2023-04-28T23:03:59.160Z,11.48
2023-04-28T23:09:05.440Z,12.77
2023-04-28T23:14:10.838Z,13.50
2023-04-28T23:19:15.066Z,14.23
2023-04-28T23:24:20.573Z,13.13
2023-04-28T23:29:24.505Z,11.30
2023-04-28T23:34:28.516Z,12.48
2023-04-28T23:39:34.060Z,12.20
2023-04-28T23:44:38.029Z,10.77
2023-04-28T23:49:42.259Z,10.93
2023-04-28T23:54:48.173Z,11.15
2023-04-28T23:59:52.347Z,12.57
